ADDS METAR Data INFO
IDs: Format: Raw Decoded Include TAF

Data at: 1125 UTC 17 Jul 2018

METAR for:KTMB (Miami/Kendall-Tamian, FL, US)
Text:KTMB 171053Z AUTO 00000KT 10SM CLR 25/23 A3010 RMK AO2 SLP192 T02500233
Temperature: 25.0°C ( 77°F)
Dewpoint: 23.3°C ( 74°F) [RH = 90%]
Pressure (altimeter):30.10 inches Hg (1019.4 mb) [Sea level pressure: 1019.2 mb]
Winds:calm
Visibility:10 or more sm (16+ km)
Ceiling:at least 12,000 feet AGL
Clouds:sky clear below 12,000 feet AGL
QC Flag:automated observation with no human augmentation